Time;durP1;ratioP1;P1;durP2;ratioP2;P2;SDS_P1;SDS_P2;PMS_P1;PMS_P2;Temp;Humidity;BMP_temperature;BMP_pressure;BME280_temperature;BME280_humidity;BME280_pressure;Samples;Min_cycle;Max_cycle;Signal;HPM_P1;HPM_P2
2022/08/19 00:02:11;;;;;;;13.88;6.70;;;24.50;99.90;;;;;;4955471;28;20039;-72
2022/08/19 00:04:37;;;;;;;14.48;7.18;;;24.50;99.90;;;;;;4954815;28;20020;-72
2022/08/19 00:07:07;;;;;;;13.73;7.28;;;24.50;99.90;;;;;;4955164;28;20485;-72
2022/08/19 00:09:33;;;;;;;15.23;6.95;;;24.30;99.90;;;;;;4955258;28;20398;-72
2022/08/19 00:11:59;;;;;;;12.10;6.65;;;24.10;99.90;;;;;;4954948;28;20027;-72
2022/08/19 00:14:26;;;;;;;14.38;7.43;;;;;;;;;;4955030;28;20024;-72
2022/08/19 00:16:54;;;;;;;13.40;7.72;;;;;;;;;;4954755;28;20042;-72
2022/08/19 00:19:20;;;;;;;11.38;6.65;;;24.00;99.90;;;;;;4954835;28;20031;-72
2022/08/19 00:21:46;;;;;;;10.35;6.60;;;23.90;99.90;;;;;;4954707;28;20470;-72
2022/08/19 00:24:14;;;;;;;11.23;6.03;;;23.90;99.90;;;;;;4955014;28;20035;-72
2022/08/19 00:26:42;;;;;;;10.88;7.13;;;23.80;99.90;;;;;;4954733;28;20490;-72
2022/08/19 00:29:10;;;;;;;19.48;7.80;;;23.90;99.90;;;;;;4953463;29;20122;-73
2022/08/19 00:31:36;;;;;;;13.32;7.30;;;23.90;99.90;;;;;;4954654;28;20034;-71
2022/08/19 00:34:02;;;;;;;12.00;7.05;;;24.00;99.90;;;;;;4954617;28;20031;-72
2022/08/19 00:36:28;;;;;;;18.92;8.63;;;24.10;99.90;;;;;;4954972;28;20386;-72
2022/08/19 00:38:55;;;;;;;14.48;7.55;;;24.10;99.90;;;;;;4954532;28;20214;-72
2022/08/19 00:41:23;;;;;;;21.25;7.57;;;24.20;99.90;;;;;;4954668;28;20518;-72
2022/08/19 00:44:11;;;;;;;13.45;7.05;;;24.20;99.90;;;;;;4954560;28;20042;-72
2022/08/19 00:46:39;;;;;;;16.85;8.05;;;24.30;99.90;;;;;;4954659;28;20426;-71
2022/08/19 00:49:22;;;;;;;15.07;7.50;;;24.30;99.90;;;;;;4954602;28;20090;-72
2022/08/19 00:51:53;;;;;;;12.77;7.72;;;24.30;99.90;;;;;;4954569;28;20027;-72
2022/08/19 00:54:19;;;;;;;13.68;7.25;;;24.30;99.90;;;;;;4954566;28;20110;-73
2022/08/19 00:56:46;;;;;;;15.35;8.27;;;24.30;99.90;;;;;;4954309;28;20046;-72
2022/08/19 00:59:12;;;;;;;12.52;7.10;;;24.30;99.90;;;;;;4953451;28;20462;-71
2022/08/19 01:01:41;;;;;;;12.60;8.23;;;24.20;99.90;;;;;;4954373;28;20053;-73
2022/08/19 01:04:07;;;;;;;17.02;8.80;;;24.20;99.90;;;;;;4954370;28;20063;-72
2022/08/19 01:06:35;;;;;;;16.08;8.32;;;24.20;99.90;;;;;;4954233;28;20035;-73
2022/08/19 01:09:01;;;;;;;15.52;8.38;;;24.10;99.90;;;;;;4954338;28;20394;-71
2022/08/19 01:11:28;;;;;;;20.17;8.00;;;24.00;99.90;;;;;;4954326;28;20024;-72
2022/08/19 01:13:55;;;;;;;14.90;7.43;;;23.80;99.90;;;;;;4953853;28;20020;-72
2022/08/19 01:16:23;;;;;;;17.33;7.85;;;23.80;99.90;;;;;;4954153;28;20031;-73
2022/08/19 01:18:49;;;;;;;20.90;7.90;;;23.60;99.90;;;;;;4954010;28;20024;-72
2022/08/19 01:21:28;;;;;;;12.40;7.88;;;23.40;99.90;;;;;;4954171;28;20023;-72
2022/08/19 01:23:54;;;;;;;13.88;7.88;;;23.50;99.90;;;;;;4954135;28;20026;-72
2022/08/19 01:26:22;;;;;;;15.13;7.03;;;;;;;;;;4954127;28;20028;-71
2022/08/19 01:28:50;;;;;;;16.15;7.43;;;23.50;99.90;;;;;;4953594;28;20077;-72
2022/08/19 01:31:21;;;;;;;15.52;7.78;;;23.30;99.90;;;;;;4954087;28;20106;-72
2022/08/19 01:33:48;;;;;;;14.65;7.50;;;23.20;99.90;;;;;;4953941;28;20023;-72
2022/08/19 01:36:22;;;;;;;10.93;7.93;;;23.20;99.90;;;;;;4954059;28;20035;-72
2022/08/19 01:38:49;;;;;;;11.93;7.25;;;23.20;99.90;;;;;;4954053;28;20023;-72
2022/08/19 01:41:16;;;;;;;13.95;7.82;;;23.30;99.90;;;;;;4954014;28;20051;-72
2022/08/19 01:43:42;;;;;;;13.00;8.05;;;23.30;99.90;;;;;;4953777;28;20126;-73
2022/08/19 01:46:08;;;;;;;15.30;8.05;;;23.20;99.90;;;;;;4954093;28;20123;-72
2022/08/19 01:48:38;;;;;;;14.15;8.30;;;23.20;99.90;;;;;;4953798;28;20086;-72
2022/08/19 01:51:04;;;;;;;13.73;8.32;;;23.20;99.90;;;;;;4953413;28;20149;-73
2022/08/19 01:53:30;;;;;;;18.30;8.80;;;23.20;99.90;;;;;;4954026;28;20023;-72
2022/08/19 01:55:56;;;;;;;16.98;8.65;;;23.20;99.90;;;;;;4953766;28;20038;-72
2022/08/19 01:58:30;;;;;;;12.45;8.20;;;23.20;99.90;;;;;;4954015;28;20058;-72
2022/08/19 02:00:56;;;;;;;11.98;8.07;;;23.00;99.90;;;;;;4953799;28;20091;-72
2022/08/19 02:03:23;;;;;;;13.45;7.55;;;22.90;99.90;;;;;;4953844;28;20046;-72
2022/08/19 02:05:58;;;;;;;15.52;8.50;;;22.90;99.90;;;;;;4953624;28;20085;-72
2022/08/19 02:08:24;;;;;;;10.00;7.43;;;22.90;99.90;;;;;;4953671;28;20106;-72
2022/08/19 02:10:50;;;;;;;14.38;7.68;;;22.90;99.90;;;;;;4955286;28;20094;-72
2022/08/19 02:13:16;;;;;;;15.93;7.93;;;22.80;99.90;;;;;;4957278;28;20035;-72
2022/08/19 02:15:42;;;;;;;15.55;8.35;;;22.80;99.90;;;;;;4957016;28;20027;-72
2022/08/19 02:18:08;;;;;;;11.23;7.60;;;22.80;99.90;;;;;;4957367;28;20027;-72
2022/08/19 02:20:35;;;;;;;14.82;8.27;;;22.90;99.90;;;;;;4957034;28;20039;-73
2022/08/19 02:23:01;;;;;;;14.18;8.45;;;23.00;99.90;;;;;;4956942;28;20110;-72
2022/08/19 02:25:27;;;;;;;13.85;8.02;;;23.00;99.90;;;;;;4957003;28;20050;-73
2022/08/19 02:27:53;;;;;;;13.30;8.07;;;23.00;99.90;;;;;;4957132;28;20066;-72
2022/08/19 02:30:21;;;;;;;13.45;8.63;;;23.00;99.90;;;;;;4957113;28;20019;-71
2022/08/19 02:32:47;;;;;;;12.73;7.85;;;23.00;99.90;;;;;;4957017;28;20032;-72
2022/08/19 02:35:14;;;;;;;18.95;8.88;;;23.10;99.90;;;;;;4957083;28;20034;-71
2022/08/19 02:40:26;;;;;;;20.08;8.35;;;23.00;99.90;;;;;;4956937;28;20470;-73
2022/08/19 02:42:51;;;;;;;18.98;7.70;;;22.90;99.90;;;;;;4956551;28;20016;-72
2022/08/19 02:45:18;;;;;;;20.00;8.57;;;22.80;99.90;;;;;;4956804;28;20566;-72
2022/08/19 02:47:44;;;;;;;13.00;8.57;;;22.70;99.90;;;;;;4956744;28;20034;-72
2022/08/19 02:50:10;;;;;;;18.35;9.80;;;22.70;99.90;;;;;;4956729;28;20035;-72
2022/08/19 02:52:36;;;;;;;14.82;8.98;;;22.70;99.90;;;;;;4956415;28;20066;-71
2022/08/19 02:55:03;;;;;;;15.45;9.38;;;22.70;99.90;;;;;;4956839;28;20031;-72
2022/08/19 02:57:31;;;;;;;15.07;9.70;;;22.50;99.90;;;;;;4956295;28;20028;-72
2022/08/19 02:59:57;;;;;;;16.15;9.30;;;22.40;99.90;;;;;;4955014;29;20386;-73
2022/08/19 03:02:23;;;;;;;14.00;8.63;;;22.20;99.90;;;;;;4956274;28;20038;-71
2022/08/19 03:04:49;;;;;;;12.90;8.02;;;22.10;99.90;;;;;;4956290;28;20023;-66
2022/08/19 03:07:16;;;;;;;16.90;9.85;;;22.10;99.90;;;;;;4956143;28;20028;-72
2022/08/19 03:09:42;;;;;;;14.27;8.70;;;22.00;99.90;;;;;;4955533;28;20023;-73
2022/08/19 03:12:09;;;;;;;12.55;8.95;;;22.10;99.90;;;;;;4956419;28;20398;-71
2022/08/19 03:14:35;;;;;;;12.15;8.48;;;22.00;99.90;;;;;;4956073;28;20027;-72
2022/08/19 03:17:01;;;;;;;11.15;7.88;;;22.00;99.90;;;;;;4956193;28;20043;-71
2022/08/19 03:19:27;;;;;;;16.73;8.38;;;22.10;99.90;;;;;;4956039;28;20118;-73
2022/08/19 03:21:53;;;;;;;12.07;7.68;;;22.00;99.90;;;;;;4955089;28;20109;-71
2022/08/19 03:24:20;;;;;;;15.27;8.35;;;21.90;99.90;;;;;;4956137;28;20082;-73
2022/08/19 03:26:49;;;;;;;16.10;8.55;;;21.90;99.90;;;;;;4955901;28;20033;-72
2022/08/19 03:29:16;;;;;;;14.43;8.82;;;21.70;99.90;;;;;;4955971;28;20402;-72
2022/08/19 03:31:43;;;;;;;14.60;8.88;;;21.70;99.90;;;;;;4955695;28;20027;-73
2022/08/19 03:34:15;;;;;;;19.98;8.55;;;21.80;99.90;;;;;;4955637;28;20522;-72
2022/08/19 03:36:41;;;;;;;12.50;8.65;;;21.90;99.90;;;;;;4955841;28;20043;-71
2022/08/19 03:39:08;;;;;;;13.70;9.07;;;21.90;99.90;;;;;;4970529;28;20039;-72
2022/08/19 03:41:38;;;;;;;11.98;7.70;;;21.90;99.90;;;;;;4955925;28;20394;-72
2022/08/19 03:44:08;;;;;;;13.20;8.18;;;21.90;99.90;;;;;;4955338;28;20507;-72
2022/08/19 03:46:34;;;;;;;13.95;9.80;;;22.00;99.90;;;;;;4954709;28;20031;-73
2022/08/19 03:49:07;;;;;;;15.27;9.55;;;22.00;99.90;;;;;;4953473;28;20094;-71
2022/08/19 03:51:38;;;;;;;14.95;8.50;;;22.10;99.90;;;;;;4954334;28;20038;-69
2022/08/19 03:54:07;;;;;;;11.85;7.97;;;22.10;99.90;;;;;;4952504;29;20051;-66
2022/08/19 03:56:37;;;;;;;16.67;8.80;;;22.10;99.90;;;;;;4957161;28;20106;-64
2022/08/19 03:59:07;;;;;;;17.10;9.20;;;22.20;99.90;;;;;;4961262;28;20090;-69
2022/08/19 04:01:35;;;;;;;11.35;6.88;;;22.30;99.90;;;;;;4954624;28;20062;-70
2022/08/19 04:04:01;;;;;;;14.77;9.05;;;22.30;99.90;;;;;;4954288;28;20110;-71
2022/08/19 04:06:30;;;;;;;15.50;9.13;;;22.40;99.90;;;;;;4954112;28;20078;-64
2022/08/19 04:08:58;;;;;;;16.60;8.60;;;22.50;99.90;;;;;;4951879;29;20027;-66
2022/08/19 04:11:53;;;;;;;19.73;8.93;;;22.60;99.90;;;;;;4954208;28;20023;-72
2022/08/19 04:14:26;;;;;;;12.95;7.57;;;22.70;99.90;;;;;;4948145;28;20047;-73
2022/08/19 04:16:52;;;;;;;13.48;8.00;;;22.80;99.90;;;;;;4954701;28;20402;-73
2022/08/19 04:19:20;;;;;;;12.45;8.10;;;22.90;99.90;;;;;;4955205;28;20019;-73
2022/08/19 04:21:48;;;;;;;19.02;8.27;;;22.90;99.90;;;;;;4954316;28;20497;-72
2022/08/19 04:24:14;;;;;;;13.02;7.40;;;23.00;99.90;;;;;;4954672;28;20050;-73
2022/08/19 04:26:41;;;;;;;13.73;8.82;;;23.10;99.90;;;;;;4954117;28;20038;-71
2022/08/19 04:29:11;;;;;;;15.13;8.15;;;23.10;99.90;;;;;;4952478;28;20016;-72
2022/08/19 04:31:37;;;;;;;13.48;8.63;;;23.30;99.90;;;;;;4954388;28;20043;-73
2022/08/19 04:34:07;;;;;;;12.90;8.05;;;23.30;99.90;;;;;;4954721;28;20098;-73
2022/08/19 04:36:36;;;;;;;13.25;7.35;;;23.50;99.90;;;;;;4954677;28;20043;-72
2022/08/19 04:39:07;;;;;;;22.27;8.10;;;23.60;99.90;;;;;;4954867;28;20524;-69
2022/08/19 04:44:18;;;;;;;10.40;7.40;;;23.70;99.90;;;;;;4953072;28;20082;-72
2022/08/19 04:46:48;;;;;;;23.70;8.18;;;23.90;99.90;;;;;;4954505;28;20035;-73
2022/08/19 04:49:17;;;;;;;19.00;7.43;;;24.10;99.90;;;;;;4954132;28;20106;-73
2022/08/19 04:51:45;;;;;;;12.60;6.97;;;24.30;99.90;;;;;;4954285;29;20034;-72
2022/08/19 04:54:12;;;;;;;13.80;6.85;;;24.50;99.90;;;;;;4954227;28;20101;-73
2022/08/19 04:56:39;;;;;;;13.98;7.00;;;24.80;99.90;;;;;;4954384;28;20046;-73
2022/08/19 04:59:05;;;;;;;11.65;6.85;;;24.90;99.90;;;;;;4953942;28;20487;-73
2022/08/19 05:01:32;;;;;;;8.70;6.03;;;25.20;99.90;;;;;;4954275;28;20063;-73
2022/08/19 05:04:04;;;;;;;10.63;6.95;;;25.70;99.90;;;;;;4953933;28;20035;-73
2022/08/19 05:06:34;;;;;;;16.25;7.00;;;25.90;99.90;;;;;;4954220;28;20031;-72
2022/08/19 05:09:02;;;;;;;10.60;5.97;;;26.10;99.90;;;;;;4954060;28;20129;-67
2022/08/19 05:11:33;;;;;;;12.75;7.00;;;26.20;99.90;;;;;;4953645;28;20082;-73
2022/08/19 05:13:59;;;;;;;13.65;7.05;;;25.80;99.90;;;;;;4954024;28;20024;-71
2022/08/19 05:16:27;;;;;;;15.20;7.57;;;25.60;99.90;;;;;;4953466;28;20371;-73
2022/08/19 05:24:25;;;;;;;11.80;6.72;;;25.60;99.90;;;;;;4954032;29;20027;-74
2022/08/19 05:26:52;;;;;;;13.93;6.78;;;25.70;99.90;;;;;;4953692;28;20046;-73
2022/08/19 05:29:20;;;;;;;12.25;6.00;;;25.90;99.80;;;;;;4953293;28;20031;-73
2022/08/19 05:31:49;;;;;;;13.05;6.35;;;26.10;99.90;;;;;;4953502;28;20048;-72
2022/08/19 05:34:16;;;;;;;12.27;6.72;;;25.90;99.90;;;;;;4953807;28;20386;-73
2022/08/19 05:36:44;;;;;;;10.52;6.00;;;25.80;99.90;;;;;;4953783;28;20031;-73
2022/08/19 05:39:13;;;;;;;14.38;6.28;;;26.10;99.90;;;;;;4953907;28;20028;-73
2022/08/19 05:41:52;;;;;;;11.00;6.68;;;26.00;99.90;;;;;;4953913;28;20577;-75
2022/08/19 05:44:19;;;;;;;12.23;6.80;;;25.70;99.90;;;;;;4952148;28;20047;-73
2022/08/19 05:46:49;;;;;;;13.95;6.85;;;25.70;99.90;;;;;;4956998;28;20031;-71
2022/08/19 05:49:16;;;;;;;16.45;7.22;;;25.80;99.80;;;;;;4957509;28;20059;-71
2022/08/19 05:51:42;;;;;;;16.48;7.32;;;25.90;99.90;;;;;;4957603;28;20430;-62
2022/08/19 05:54:09;;;;;;;11.23;6.72;;;25.90;98.60;;;;;;4957482;28;20078;-72
2022/08/19 05:56:38;;;;;;;12.35;6.38;;;25.80;98.00;;;;;;4957431;28;20035;-67
2022/08/19 05:59:08;;;;;;;14.93;6.57;;;26.40;97.90;;;;;;4957648;28;20031;-63
2022/08/19 06:01:34;;;;;;;9.13;6.07;;;26.50;97.50;;;;;;4956912;28;20605;-71
2022/08/19 06:04:00;;;;;;;19.90;7.53;;;26.90;97.10;;;;;;4957183;28;20050;-71
2022/08/19 06:06:26;;;;;;;14.80;6.72;;;27.10;95.10;;;;;;4956888;28;20030;-72
2022/08/19 06:08:52;;;;;;;16.92;6.10;;;27.40;94.10;;;;;;4956632;28;20401;-68
2022/08/19 06:11:24;;;;;;;12.20;6.32;;;27.70;93.90;;;;;;4957094;28;20023;-71
2022/08/19 06:13:53;;;;;;;11.73;7.10;;;27.90;92.40;;;;;;4955225;28;20423;-71
2022/08/19 06:16:21;;;;;;;9.98;6.30;;;27.30;90.80;;;;;;4955428;28;20042;-64
2022/08/19 06:18:52;;;;;;;10.75;6.30;;;27.70;92.30;;;;;;4956793;28;20062;-72
2022/08/19 06:21:23;;;;;;;11.88;6.70;;;28.00;90.30;;;;;;4956702;28;20525;-70
2022/08/19 06:23:51;;;;;;;13.18;6.50;;;28.40;90.50;;;;;;4956767;28;20032;-73
2022/08/19 06:26:18;;;;;;;12.10;6.32;;;28.70;86.80;;;;;;4957323;28;20348;-73
2022/08/19 06:28:46;;;;;;;10.45;5.82;;;29.10;86.40;;;;;;4956915;28;20024;-73
2022/08/19 06:31:17;;;;;;;12.68;5.70;;;29.10;83.90;;;;;;4971778;28;20392;-73
2022/08/19 06:33:44;;;;;;;12.45;7.18;;;;;;;;;;4956594;28;20031;-73
2022/08/19 06:36:31;;;;;;;13.50;6.05;;;29.60;81.40;;;;;;4956253;29;20043;-74
2022/08/19 06:39:03;;;;;;;13.73;6.85;;;29.80;80.90;;;;;;4955201;28;20437;-72
2022/08/19 06:41:30;;;;;;;15.65;6.15;;;30.10;78.50;;;;;;4947877;28;20023;-75
2022/08/19 06:43:57;;;;;;;14.50;6.32;;;30.40;79.30;;;;;;4953596;28;20035;-74
2022/08/19 06:46:23;;;;;;;12.80;6.20;;;30.30;76.40;;;;;;4955906;28;20039;-74
2022/08/19 06:48:49;;;;;;;12.48;6.00;;;30.20;76.10;;;;;;4955402;28;20054;-73
2022/08/19 06:51:18;;;;;;;11.65;6.38;;;29.90;76.00;;;;;;4955558;28;20035;-71
2022/08/19 06:53:52;;;;;;;16.95;6.32;;;30.20;75.70;;;;;;4955225;28;20027;-70
2022/08/19 06:56:30;;;;;;;17.25;6.90;;;30.00;78.90;;;;;;4954310;28;20121;-72
2022/08/19 06:58:56;;;;;;;9.98;5.30;;;30.10;77.80;;;;;;4955018;28;20031;-70
2022/08/19 07:01:22;;;;;;;10.52;5.55;;;29.60;78.20;;;;;;4954887;28;20039;-73
2022/08/19 07:03:48;;;;;;;12.23;5.97;;;29.90;78.60;;;;;;4955183;28;20473;-73
2022/08/19 07:06:17;;;;;;;12.65;6.25;;;29.90;76.40;;;;;;4955081;28;20098;-73
2022/08/19 07:08:46;;;;;;;12.80;5.88;;;29.90;76.30;;;;;;4954609;28;20401;-70
2022/08/19 07:11:13;;;;;;;13.27;6.18;;;30.10;76.90;;;;;;4954599;28;20034;-73
2022/08/19 07:13:43;;;;;;;12.63;6.25;;;30.20;76.20;;;;;;4954399;28;20027;-74
2022/08/19 07:16:12;;;;;;;12.00;6.03;;;30.40;76.60;;;;;;4954791;28;20055;-75
2022/08/19 07:18:38;;;;;;;11.60;6.32;;;29.80;76.70;;;;;;4954493;28;20023;-75
2022/08/19 07:21:15;;;;;;;12.15;6.20;;;30.50;76.50;;;;;;4953953;28;20582;-75
2022/08/19 07:23:41;;;;;;;13.43;5.88;;;30.50;74.40;;;;;;4954153;28;20501;-70
2022/08/19 07:26:13;;;;;;;12.13;5.72;;;30.70;76.00;;;;;;4954594;28;20032;-75
2022/08/19 07:28:39;;;;;;;10.98;6.13;;;;;;;;;;4955000;28;20027;-73
2022/08/19 07:31:06;;;;;;;10.95;5.97;;;31.20;73.90;;;;;;4954900;28;20098;-74
2022/08/19 07:33:35;;;;;;;9.73;6.20;;;30.80;74.70;;;;;;4955332;28;20023;-73
2022/08/19 07:36:01;;;;;;;12.80;5.60;;;31.30;75.10;;;;;;4955097;28;20023;-75
2022/08/19 07:38:27;;;;;;;12.48;6.05;;;31.60;74.10;;;;;;4955031;28;20085;-73
2022/08/19 07:40:53;;;;;;;13.40;5.50;;;31.80;72.70;;;;;;4955092;28;20027;-73
2022/08/19 07:43:20;;;;;;;11.73;5.90;;;32.20;72.50;;;;;;4953938;28;20035;-75
2022/08/19 07:45:46;;;;;;;14.65;5.97;;;32.30;72.40;;;;;;4954475;28;20101;-74
2022/08/19 07:48:14;;;;;;;11.35;5.55;;;32.70;71.70;;;;;;4954957;28;20036;-74
2022/08/19 07:50:40;;;;;;;10.23;5.80;;;33.00;93.10;;;;;;4954772;28;20043;-75
2022/08/19 07:53:06;;;;;;;12.73;5.18;;;32.90;69.90;;;;;;4954078;28;20050;-74
2022/08/19 07:55:31;;;;;;;13.38;5.85;;;32.60;70.80;;;;;;4969523;28;20020;-74
2022/08/19 07:57:57;;;;;;;9.02;5.63;;;32.60;69.80;;;;;;4954317;28;20510;-74
2022/08/19 08:00:23;;;;;;;9.60;5.40;;;32.30;68.80;;;;;;4954525;28;20033;-73
2022/08/19 08:02:49;;;;;;;13.43;5.88;;;32.40;70.50;;;;;;4954109;28;20024;-74
2022/08/19 08:10:44;;;;;;;8.25;4.93;;;;;;;;;;4954972;29;20030;-72
2022/08/19 08:13:10;;;;;;;13.43;6.43;;;32.20;85.50;;;;;;4955108;28;20382;-75
2022/08/19 08:15:38;;;;;;;11.15;5.43;;;32.70;71.60;;;;;;4954804;28;20031;-75
2022/08/19 08:18:04;;;;;;;17.58;5.50;;;32.40;69.90;;;;;;4954382;28;20110;-74
2022/08/19 08:20:30;;;;;;;9.68;6.00;;;32.90;69.40;;;;;;4954504;28;20106;-72
2022/08/19 08:25:40;;;;;;;9.43;5.30;;;;;;;;;;4952110;28;20616;-72
2022/08/19 08:28:08;;;;;;;11.52;6.10;;;33.70;66.80;;;;;;4954153;29;20028;-71
2022/08/19 08:30:36;;;;;;;11.10;5.60;;;33.60;69.10;;;;;;4954307;28;20405;-71
2022/08/19 08:33:02;;;;;;;13.32;5.63;;;33.70;70.50;;;;;;4954329;28;20022;-71
2022/08/19 08:35:28;;;;;;;15.48;6.22;;;33.70;67.30;;;;;;4954088;28;20023;-72
2022/08/19 08:37:56;;;;;;;14.15;7.15;;;;;;;;;;4954251;28;20493;-71
2022/08/19 08:40:38;;;;;;;11.88;6.70;;;34.00;66.70;;;;;;4954089;28;20019;-75
2022/08/19 08:43:11;;;;;;;13.32;6.68;;;34.20;67.60;;;;;;4953988;28;20033;-73
2022/08/19 08:45:46;;;;;;;13.80;6.00;;;34.40;74.80;;;;;;4953279;28;20109;-75
2022/08/19 08:48:35;;;;;;;11.32;6.30;;;;;;;;;;4953422;28;20058;-75
2022/08/19 08:51:07;;;;;;;14.20;7.18;;;34.00;69.30;;;;;;4932458;29;20044;-72
2022/08/19 08:53:35;;;;;;;15.13;6.80;;;34.20;68.20;;;;;;4932339;29;20040;-74
2022/08/19 08:56:02;;;;;;;80.75;18.27;;;;;;;;;;4924251;29;20111;-74
2022/08/19 08:58:47;;;;;;;9.00;5.72;;;36.30;68.30;;;;;;4925132;29;20482;-72
2022/08/19 09:01:13;;;;;;;18.55;6.43;;;34.90;71.50;;;;;;4931354;29;20386;-75
2022/08/19 09:03:42;;;;;;;14.90;6.70;;;35.00;67.00;;;;;;4931645;29;20036;-74
2022/08/19 09:06:17;;;;;;;9.55;5.43;;;35.20;68.10;;;;;;4931599;29;20040;-75
2022/08/19 09:09:14;;;;;;;9.40;5.95;;;35.30;67.60;;;;;;4930846;29;20076;-73
2022/08/19 09:12:03;;;;;;;16.05;6.78;;;35.20;67.90;;;;;;4930575;29;20110;-72
2022/08/19 09:14:31;;;;;;;11.68;5.38;;;35.50;68.20;;;;;;4931674;29;20085;-72
2022/08/19 09:16:59;;;;;;;11.73;5.50;;;35.80;69.50;;;;;;4932066;29;20048;-71
2022/08/19 09:19:25;;;;;;;11.82;5.80;;;36.00;68.20;;;;;;4932032;29;20035;-73
2022/08/19 09:21:51;;;;;;;10.40;5.45;;;36.00;65.80;;;;;;4932279;29;20036;-72
2022/08/19 09:24:17;;;;;;;12.32;6.53;;;36.40;68.60;;;;;;4932037;29;20039;-73
2022/08/19 09:26:43;;;;;;;9.57;5.85;;;36.40;68.00;;;;;;4931399;29;20071;-72
2022/08/19 09:29:10;;;;;;;12.10;5.78;;;36.20;69.10;;;;;;4952325;29;20520;-72
2022/08/19 09:31:36;;;;;;;12.68;5.65;;;35.90;70.00;;;;;;4953402;28;20067;-71
2022/08/19 09:34:04;;;;;;;9.38;5.68;;;35.90;70.90;;;;;;4953336;28;20031;-73
2022/08/19 09:36:35;;;;;;;12.00;6.50;;;35.90;69.50;;;;;;4953250;28;20032;-71
2022/08/19 09:39:03;;;;;;;11.05;5.55;;;36.00;74.40;;;;;;4953164;28;20488;-71
2022/08/19 09:41:29;;;;;;;13.50;5.53;;;36.00;75.90;;;;;;4961368;28;20498;-71
2022/08/19 09:43:57;;;;;;;11.80;5.72;;;36.30;72.60;;;;;;4956146;28;20046;-61
2022/08/19 09:46:25;;;;;;;9.82;5.22;;;36.30;72.60;;;;;;4951723;28;20042;-71
2022/08/19 09:48:52;;;;;;;9.30;5.10;;;36.30;67.70;;;;;;4952495;29;20031;-72
2022/08/19 09:51:24;;;;;;;14.60;6.07;;;36.40;70.30;;;;;;4951808;28;20027;-72
2022/08/19 09:53:51;;;;;;;20.45;6.95;;;36.50;74.60;;;;;;4951808;28;20470;-72
2022/08/19 09:56:19;;;;;;;12.45;5.30;;;36.50;72.30;;;;;;4948497;28;20025;-72
2022/08/19 09:58:45;;;;;;;27.45;5.78;;;36.80;74.70;;;;;;4950786;28;20474;-69
2022/08/19 10:01:17;;;;;;;14.02;5.80;;;36.90;79.40;;;;;;4950704;28;20026;-72
2022/08/19 10:03:43;;;;;;;11.95;5.90;;;37.10;80.40;;;;;;4951209;28;20118;-71
2022/08/19 10:06:09;;;;;;;11.00;5.97;;;36.90;78.30;;;;;;4951767;28;20526;-73
2022/08/19 10:08:37;;;;;;;8.68;5.40;;;36.90;79.40;;;;;;4951115;28;20030;-68
2022/08/19 10:11:03;;;;;;;12.02;6.47;;;37.00;80.20;;;;;;4950945;28;20024;-72
2022/08/19 10:13:31;;;;;;;12.18;5.45;;;37.00;85.80;;;;;;4951259;28;20023;-72
2022/08/19 10:16:07;;;;;;;10.38;5.68;;;36.80;81.00;;;;;;4953411;28;20049;-71
2022/08/19 10:18:34;;;;;;;11.52;5.70;;;37.10;81.40;;;;;;4948478;28;20035;-68
2022/08/19 10:21:14;;;;;;;10.70;4.72;;;37.00;86.90;;;;;;4950809;28;20073;-68
2022/08/19 10:23:45;;;;;;;11.15;6.10;;;36.90;89.80;;;;;;4947523;29;20031;-63
2022/08/19 10:26:17;;;;;;;14.07;5.32;;;36.80;86.40;;;;;;4951078;28;20505;-62
2022/08/19 10:28:43;;;;;;;10.75;5.97;;;37.30;91.80;;;;;;4950902;28;20035;-71
2022/08/19 10:31:21;;;;;;;12.65;5.60;;;37.30;86.80;;;;;;4952161;28;20079;-71
2022/08/19 10:33:48;;;;;;;9.38;4.93;;;37.60;91.90;;;;;;4954308;28;20031;-73
2022/08/19 10:36:22;;;;;;;10.05;5.07;;;37.70;84.40;;;;;;4954111;28;20453;-69
2022/08/19 10:38:51;;;;;;;14.40;5.75;;;37.60;90.10;;;;;;4954412;28;20094;-72
2022/08/19 10:41:19;;;;;;;9.20;5.50;;;37.70;95.60;;;;;;4953881;28;20031;-73
2022/08/19 10:43:46;;;;;;;13.40;5.82;;;37.70;89.60;;;;;;4951373;28;20501;-72
2022/08/19 10:46:14;;;;;;;11.57;5.25;;;37.70;90.50;;;;;;4953295;28;20122;-68
2022/08/19 10:48:41;;;;;;;10.00;5.13;;;37.80;87.40;;;;;;4954245;28;20019;-71
2022/08/19 10:53:55;;;;;;;11.38;5.22;;;37.70;91.90;;;;;;4954180;28;20023;-71
2022/08/19 10:59:06;;;;;;;10.77;5.97;;;37.80;92.90;;;;;;4954578;28;20090;-65
2022/08/19 11:01:34;;;;;;;14.05;5.25;;;38.10;91.30;;;;;;4954026;28;20027;-70
2022/08/19 11:04:02;;;;;;;8.77;5.07;;;38.00;93.80;;;;;;4953997;28;20090;-68
2022/08/19 11:06:29;;;;;;;14.75;6.15;;;37.70;94.20;;;;;;4954036;28;20114;-73
2022/08/19 11:08:55;;;;;;;10.70;5.70;;;37.70;94.00;;;;;;4953870;28;20027;-70
2022/08/19 11:11:22;;;;;;;12.65;5.70;;;37.80;93.30;;;;;;4953507;28;20015;-73
2022/08/19 11:13:49;;;;;;;11.50;4.80;;;37.80;91.60;;;;;;4953179;28;20821;-72
2022/08/19 11:16:21;;;;;;;12.60;5.50;;;38.00;91.40;;;;;;4953209;28;20255;-62
2022/08/19 11:18:50;;;;;;;17.13;5.43;;;38.00;92.80;;;;;;4952275;28;20094;-69
2022/08/19 11:21:28;;;;;;;12.63;5.43;;;38.20;93.40;;;;;;4954152;28;20373;-73
2022/08/19 11:23:57;;;;;;;10.93;5.65;;;38.00;90.90;;;;;;4953111;29;20035;-72
2022/08/19 11:26:24;;;;;;;12.48;5.28;;;37.90;94.40;;;;;;4954709;28;20011;-73
2022/08/19 11:28:53;;;;;;;9.85;4.78;;;38.00;93.10;;;;;;4954219;28;20023;-70
2022/08/19 11:31:22;;;;;;;11.05;5.07;;;38.00;94.50;;;;;;4954832;28;20046;-73
2022/08/19 11:33:52;;;;;;;17.88;5.97;;;38.10;94.20;;;;;;4954834;28;20035;-73
2022/08/19 11:36:20;;;;;;;14.05;4.97;;;38.00;96.50;;;;;;4954569;28;20066;-73
2022/08/19 11:38:48;;;;;;;9.68;4.97;;;38.00;96.20;;;;;;4958523;28;20054;-66
2022/08/19 11:41:15;;;;;;;13.68;5.55;;;38.00;94.60;;;;;;4954302;28;20039;-77
2022/08/19 11:43:41;;;;;;;15.80;5.13;;;37.90;92.40;;;;;;4953693;28;20054;-69
2022/08/19 11:46:10;;;;;;;10.40;5.07;;;37.90;91.90;;;;;;4951719;28;20174;-73
2022/08/19 11:48:37;;;;;;;15.18;5.25;;;37.80;99.90;;;;;;4953175;28;20046;-65
2022/08/19 11:51:08;;;;;;;16.10;6.07;;;37.70;92.20;;;;;;4953673;28;20020;-75
2022/08/19 11:53:35;;;;;;;18.48;5.00;;;37.70;90.60;;;;;;4953345;28;20023;-73
2022/08/19 11:56:01;;;;;;;13.93;5.57;;;37.60;84.90;;;;;;4954114;28;20047;-75
2022/08/19 11:58:29;;;;;;;16.88;6.10;;;37.50;93.40;;;;;;4954137;29;20060;-73
2022/08/19 12:00:55;;;;;;;15.73;6.07;;;37.40;91.30;;;;;;4957001;28;20023;-77
2022/08/19 12:03:21;;;;;;;11.20;5.18;;;37.30;93.30;;;;;;4953828;28;20110;-76
2022/08/19 12:05:47;;;;;;;14.00;6.10;;;37.30;92.40;;;;;;4965416;28;20015;-75
2022/08/19 12:08:13;;;;;;;13.15;5.28;;;37.30;93.50;;;;;;4953875;28;20050;-75
2022/08/19 12:10:42;;;;;;;15.75;5.65;;;37.30;92.40;;;;;;4953682;28;20351;-76
2022/08/19 12:13:09;;;;;;;16.40;5.13;;;37.20;91.70;;;;;;4954523;28;20035;-76
2022/08/19 12:15:37;;;;;;;12.38;5.15;;;37.30;93.60;;;;;;4954501;28;20399;-78
2022/08/19 12:18:04;;;;;;;17.05;6.50;;;37.30;93.30;;;;;;4965136;28;20493;-63
2022/08/19 12:20:30;;;;;;;17.13;5.50;;;37.50;93.50;;;;;;4953866;28;20389;-75
2022/08/19 12:22:56;;;;;;;15.02;5.15;;;37.50;91.30;;;;;;4953711;28;20105;-65
2022/08/19 12:25:22;;;;;;;15.73;5.47;;;37.50;92.10;;;;;;4953538;28;20478;-73
2022/08/19 12:27:49;;;;;;;11.60;5.25;;;37.40;93.30;;;;;;4953833;28;20042;-72
2022/08/19 12:30:15;;;;;;;13.48;6.13;;;37.20;93.60;;;;;;4954062;28;20020;-75
2022/08/19 12:32:41;;;;;;;14.07;5.97;;;37.30;90.10;;;;;;4954173;28;20037;-74
2022/08/19 12:35:08;;;;;;;16.33;5.70;;;37.10;85.00;;;;;;4953852;28;20102;-74
2022/08/19 12:37:34;;;;;;;15.02;6.53;;;37.10;90.80;;;;;;4954125;28;20043;-72
2022/08/19 12:40:01;;;;;;;17.80;7.07;;;37.00;89.50;;;;;;4953998;28;20089;-72
2022/08/19 12:42:27;;;;;;;13.88;6.53;;;37.00;90.30;;;;;;4952767;28;20039;-67
2022/08/19 12:44:53;;;;;;;15.40;6.53;;;37.00;91.00;;;;;;4953089;28;20047;-73
2022/08/19 12:47:20;;;;;;;14.85;6.35;;;36.80;90.70;;;;;;4953100;28;20110;-73
2022/08/19 12:49:46;;;;;;;11.98;6.85;;;36.80;89.80;;;;;;4953371;28;20417;-73
2022/08/19 12:52:15;;;;;;;16.40;6.30;;;36.70;92.00;;;;;;4953052;28;20042;-72
2022/08/19 12:54:42;;;;;;;18.67;6.75;;;36.70;90.80;;;;;;4950222;28;20015;-73
2022/08/19 12:57:10;;;;;;;17.77;7.10;;;36.90;93.20;;;;;;4951657;28;20043;-74
2022/08/19 12:59:37;;;;;;;27.08;6.85;;;36.60;91.60;;;;;;4952855;28;20417;-71
2022/08/19 13:02:07;;;;;;;12.35;6.05;;;36.70;92.30;;;;;;4953976;28;20027;-72
2022/08/19 13:04:36;;;;;;;15.73;7.10;;;36.70;86.50;;;;;;4953428;28;20055;-73
2022/08/19 13:07:02;;;;;;;14.55;5.80;;;36.50;90.30;;;;;;4953136;28;20377;-73
2022/08/19 13:09:28;;;;;;;17.70;6.95;;;36.50;90.50;;;;;;4952153;28;20026;-69
2022/08/19 13:11:56;;;;;;;18.35;6.47;;;36.40;96.40;;;;;;4955921;28;20023;-72